Terminal Aerodrome Forecast
Issued by NWS

Home | Current Version | Previous Version | Text Only | Print | Product List | Glossary On
Versions: 1 2 3 4 5 6 7 8 9 10 11 12 13 14 15 16 17 18 19 20 21 22 23 24
360
FTUS46 KMTR 242320
TAFSFO
TAF
KSFO 242320Z 2500/2606 27012KT P6SM FEW040 SCT150
     FM250900 24005KT P6SM SCT020 BKN060
     FM251200 VRB04KT P6SM SCT030 BKN060
     FM251500 VRB04KT P6SM BKN030 OVC150
     FM251900 VRB03KT P6SM OVC100
     FM260000 VRB04KT P6SM -RA OVC080=

USA.gov is the U.S. government's official web portal to all federal, state and local government web resources and services.